createdAt,value
2022-10-17T00:01:46.361Z,99039.53
2022-10-17T00:04:14.631Z,99026.19
2022-10-17T00:06:42.899Z,99020.16
2022-10-17T00:09:11.150Z,99000.63
2022-10-17T00:11:39.355Z,98993.56
2022-10-17T00:14:07.620Z,98993.31
2022-10-17T00:16:37.671Z,98994.13
2022-10-17T00:19:08.416Z,98985.50
2022-10-17T00:21:36.753Z,98985.88
2022-10-17T00:24:05.605Z,98985.13
2022-10-17T00:26:34.196Z,98976.84
2022-10-17T00:29:02.531Z,98974.13
2022-10-17T00:31:30.835Z,98973.97
2022-10-17T00:34:01.195Z,98978.44
2022-10-17T00:36:31.599Z,98970.22
2022-10-17T00:39:02.035Z,98969.44
2022-10-17T00:41:33.314Z,98983.09
2022-10-17T00:44:04.269Z,98976.75
2022-10-17T00:46:36.665Z,98981.03
2022-10-17T00:49:08.729Z,98979.19
2022-10-17T00:51:43.924Z,98964.13
2022-10-17T00:54:13.932Z,98967.59
2022-10-17T00:56:42.749Z,98967.88
2022-10-17T00:59:13.467Z,98969.59
2022-10-17T01:01:44.071Z,98977.25
2022-10-17T01:04:12.444Z,98979.41
2022-10-17T01:06:42.578Z,98966.13
2022-10-17T01:09:11.046Z,98969.53
2022-10-17T01:11:46.669Z,98977.56
2022-10-17T01:14:26.006Z,98971.13
2022-10-17T01:17:05.568Z,98966.66
2022-10-17T01:19:59.575Z,98971.09
2022-10-17T01:22:37.008Z,98964.00
2022-10-17T01:25:28.680Z,98970.22
2022-10-17T01:28:20.412Z,98971.91
2022-10-17T01:31:05.451Z,98971.44
2022-10-17T01:33:44.636Z,98972.81
2022-10-17T01:36:22.180Z,98980.09
2022-10-17T01:38:54.113Z,98995.47
2022-10-17T01:41:33.448Z,99002.31
2022-10-17T01:44:08.728Z,98998.28
2022-10-17T01:46:40.676Z,99004.53
2022-10-17T01:49:12.651Z,98996.50
2022-10-17T01:51:46.896Z,98999.34
2022-10-17T01:54:19.943Z,98997.66
2022-10-17T01:56:52.546Z,99008.00
2022-10-17T01:59:24.739Z,99004.19
2022-10-17T02:01:59.513Z,99011.00
2022-10-17T02:04:28.691Z,99009.31
2022-10-17T02:06:56.924Z,99008.88
2022-10-17T02:09:26.828Z,99012.84
2022-10-17T02:12:22.054Z,99011.47
2022-10-17T02:15:03.098Z,99004.38
2022-10-17T02:17:45.106Z,99002.50
2022-10-17T02:20:21.299Z,98992.94
2022-10-17T02:22:55.223Z,98994.72
2022-10-17T02:25:35.620Z,98993.63
2022-10-17T02:28:11.918Z,99002.44
2022-10-17T02:30:46.094Z,98999.50
2022-10-17T02:33:22.144Z,99002.81
2022-10-17T02:35:55.743Z,99014.28
2022-10-17T02:38:25.352Z,99009.00
2022-10-17T02:40:54.994Z,99022.44
2022-10-17T02:43:26.761Z,99026.91
2022-10-17T02:45:56.940Z,99026.31
2022-10-17T02:48:32.103Z,99035.88
2022-10-17T02:51:06.635Z,99037.75
2022-10-17T02:53:43.536Z,99021.16
2022-10-17T02:56:18.323Z,99017.06
2022-10-17T02:58:51.981Z,99030.84
2022-10-17T03:01:20.920Z,99030.91
2022-10-17T03:03:50.590Z,99029.41
2022-10-17T03:06:19.250Z,99040.03
2022-10-17T03:08:47.656Z,99044.69
2022-10-17T03:11:15.967Z,99048.78
2022-10-17T03:13:44.050Z,99043.97
2022-10-17T03:16:12.032Z,99050.13
2022-10-17T03:18:40.284Z,99045.63
2022-10-17T03:21:12.147Z,99053.53
2022-10-17T03:23:40.202Z,99054.44
2022-10-17T03:26:09.039Z,99055.44
2022-10-17T03:28:37.433Z,99054.59
2022-10-17T03:31:09.740Z,99050.16
2022-10-17T03:33:39.042Z,99052.47
2022-10-17T03:36:08.284Z,99048.09
2022-10-17T03:38:37.849Z,99051.53
2022-10-17T03:41:07.288Z,99050.38
2022-10-17T03:43:36.521Z,99048.22
2022-10-17T03:46:04.796Z,99058.03
2022-10-17T03:48:33.780Z,99068.16
2022-10-17T03:51:02.292Z,99065.16
2022-10-17T03:53:31.193Z,99072.53
2022-10-17T03:56:09.697Z,99083.06
2022-10-17T03:58:37.970Z,99093.94
2022-10-17T04:01:06.314Z,99096.38
2022-10-17T04:03:34.388Z,99101.47
2022-10-17T04:06:03.036Z,99103.41
2022-10-17T04:08:32.798Z,99107.63
2022-10-17T04:11:08.971Z,99102.88
2022-10-17T04:13:37.042Z,99106.25
2022-10-17T04:16:08.474Z,99106.66
2022-10-17T04:18:41.919Z,99112.44
2022-10-17T04:21:10.532Z,99116.44
2022-10-17T04:23:38.919Z,99113.13
2022-10-17T04:26:18.024Z,99108.31
2022-10-17T04:28:46.347Z,99109.75
2022-10-17T04:31:14.783Z,99121.03
2022-10-17T04:34:02.132Z,99121.31
2022-10-17T04:36:30.259Z,99121.13
2022-10-17T04:39:01.687Z,99126.03
2022-10-17T04:41:32.555Z,99116.50
2022-10-17T04:44:00.786Z,99128.53
2022-10-17T04:46:29.303Z,99134.63
2022-10-17T04:48:57.748Z,99125.22
2022-10-17T04:51:26.726Z,99121.47
2022-10-17T04:54:12.075Z,99114.03
2022-10-17T04:56:44.974Z,99105.22
2022-10-17T04:59:12.960Z,99116.88
2022-10-17T05:01:42.388Z,99111.91
2022-10-17T05:04:10.422Z,99118.09
2022-10-17T05:06:38.617Z,99128.94
2022-10-17T05:09:34.368Z,99118.66
2022-10-17T05:12:09.590Z,99129.34
2022-10-17T05:14:40.804Z,99118.31
2022-10-17T05:17:08.955Z,99129.34
2022-10-17T05:19:37.017Z,99126.03
2022-10-17T05:22:05.466Z,99133.66
2022-10-17T05:24:33.463Z,99136.63
2022-10-17T05:27:01.547Z,99137.50
2022-10-17T05:29:31.292Z,99145.50
2022-10-17T05:32:07.590Z,99143.66
2022-10-17T05:34:36.671Z,99152.56
2022-10-17T05:37:04.903Z,99159.91
2022-10-17T05:39:33.780Z,99160.28
2022-10-17T05:42:01.770Z,99170.81
2022-10-17T05:44:31.299Z,99169.66
2022-10-17T05:47:02.065Z,99171.31
2022-10-17T05:49:44.950Z,99175.06
2022-10-17T05:52:18.529Z,99172.34
2022-10-17T05:55:01.046Z,99180.25
2022-10-17T05:57:29.183Z,99183.28
2022-10-17T06:00:01.545Z,99187.44
2022-10-17T06:02:42.140Z,99187.53
2022-10-17T06:05:12.766Z,99191.81
2022-10-17T06:07:40.923Z,99185.69
2022-10-17T06:10:09.859Z,99176.94
2022-10-17T06:12:38.008Z,99168.53
2022-10-17T06:15:08.066Z,99171.91
2022-10-17T06:17:36.709Z,99174.22
2022-10-17T06:20:05.034Z,99169.16
2022-10-17T06:22:33.710Z,99176.22
2022-10-17T06:25:03.219Z,99176.31
2022-10-17T06:27:31.202Z,99187.69
2022-10-17T06:29:59.238Z,99188.47
2022-10-17T06:32:31.226Z,99199.66
2022-10-17T06:34:59.389Z,99194.28
2022-10-17T06:37:35.308Z,99201.09
2022-10-17T06:40:07.919Z,99187.34
2022-10-17T06:42:36.334Z,99186.50
2022-10-17T06:45:27.604Z,99195.34
2022-10-17T06:48:15.815Z,99199.81
2022-10-17T06:51:11.341Z,99208.63
2022-10-17T06:53:48.744Z,99213.78
2022-10-17T06:56:35.468Z,99206.94
2022-10-17T06:59:11.542Z,99209.59
2022-10-17T07:01:46.074Z,99207.84
2022-10-17T07:04:16.974Z,99205.50
2022-10-17T07:06:45.392Z,99196.41
2022-10-17T07:09:18.003Z,99190.25
2022-10-17T07:11:46.250Z,99185.91
2022-10-17T07:14:18.243Z,99186.56
2022-10-17T07:16:47.483Z,99189.66
2022-10-17T07:19:22.473Z,99191.19
2022-10-17T07:21:51.537Z,99184.28
2022-10-17T07:24:19.750Z,99184.56
2022-10-17T07:26:52.562Z,99193.97
2022-10-17T07:29:21.620Z,99202.41
2022-10-17T07:32:08.553Z,99201.88
2022-10-17T07:34:37.959Z,99201.34
2022-10-17T07:37:09.807Z,99204.47
2022-10-17T07:39:39.967Z,99203.91
2022-10-17T07:42:08.627Z,99206.59
2022-10-17T07:44:36.625Z,99214.56
2022-10-17T07:47:05.280Z,99212.84
2022-10-17T07:49:33.308Z,99210.69
2022-10-17T07:52:02.665Z,99220.59
2022-10-17T07:54:32.774Z,99210.50
2022-10-17T07:57:00.917Z,99204.38
2022-10-17T07:59:28.957Z,99205.66
2022-10-17T08:01:57.055Z,99195.56
2022-10-17T08:04:25.053Z,99188.81
2022-10-17T08:06:56.427Z,99188.16
2022-10-17T08:09:30.089Z,99196.06
2022-10-17T08:11:58.115Z,99207.53
2022-10-17T08:14:26.075Z,99213.47
2022-10-17T08:16:55.400Z,99217.25
2022-10-17T08:19:23.394Z,99199.34
2022-10-17T08:21:52.279Z,99200.38
2022-10-17T08:24:20.281Z,99193.50
2022-10-17T08:26:51.876Z,99192.59
2022-10-17T08:29:20.151Z,99194.59
2022-10-17T08:31:49.925Z,99192.56
2022-10-17T08:34:19.307Z,99197.38
2022-10-17T08:36:47.293Z,99195.13
2022-10-17T08:39:15.323Z,99201.84
2022-10-17T08:41:48.735Z,99192.09
2022-10-17T08:44:22.649Z,99187.63
2022-10-17T08:46:53.145Z,99186.84
2022-10-17T08:49:24.974Z,99190.19
2022-10-17T08:51:56.855Z,99178.97
2022-10-17T08:54:28.036Z,99175.91
2022-10-17T08:56:56.291Z,99170.53
2022-10-17T08:59:27.588Z,99171.06
2022-10-17T09:01:59.201Z,99167.97
2022-10-17T09:04:41.148Z,99154.28
2022-10-17T09:07:13.329Z,99153.06
2022-10-17T09:09:44.751Z,99142.66
2022-10-17T09:12:16.692Z,99143.59
2022-10-17T09:14:51.843Z,99149.19
2022-10-17T09:17:25.295Z,99152.75
2022-10-17T09:19:58.323Z,99156.63
2022-10-17T09:22:29.309Z,99150.09
2022-10-17T09:25:00.179Z,99147.03
2022-10-17T09:27:33.282Z,99141.72
2022-10-17T09:30:21.463Z,99140.31
2022-10-17T09:33:01.739Z,99133.81
2022-10-17T09:35:30.603Z,99131.75
2022-10-17T09:37:59.569Z,99125.75
2022-10-17T09:40:30.795Z,99123.31
2022-10-17T09:43:00.077Z,99106.63
2022-10-17T09:45:33.580Z,99111.28
2022-10-17T09:48:06.767Z,99111.78
2022-10-17T09:50:34.978Z,99110.03
2022-10-17T09:53:03.845Z,99115.19
2022-10-17T09:55:35.711Z,99107.44
2022-10-17T09:58:04.910Z,99110.25
2022-10-17T10:00:35.266Z,99107.84
2022-10-17T10:03:16.087Z,99105.63
2022-10-17T10:05:58.548Z,99118.59
2022-10-17T10:08:28.539Z,99118.22
2022-10-17T10:11:03.235Z,99117.88
2022-10-17T10:13:32.150Z,99120.31
2022-10-17T10:16:25.161Z,99125.84
2022-10-17T10:18:53.563Z,99122.50
2022-10-17T10:21:22.316Z,99128.56
2022-10-17T10:24:07.683Z,99130.94
2022-10-17T10:26:39.104Z,99125.47
2022-10-17T10:29:08.753Z,99130.03
2022-10-17T10:31:40.738Z,99126.28
2022-10-17T10:34:17.444Z,99123.34
2022-10-17T10:36:51.140Z,99124.72
2022-10-17T10:39:27.208Z,99126.69
2022-10-17T10:41:55.408Z,99128.78
2022-10-17T10:44:25.329Z,99133.06
2022-10-17T10:47:08.229Z,99131.75
2022-10-17T10:49:36.762Z,99129.13
2022-10-17T10:52:05.775Z,99129.00
2022-10-17T10:54:36.578Z,99126.53
2022-10-17T10:57:06.452Z,99133.69
2022-10-17T10:59:40.844Z,99132.22
2022-10-17T11:02:16.240Z,99132.66
2022-10-17T11:04:48.556Z,99135.75
2022-10-17T11:07:22.462Z,99124.59
2022-10-17T11:09:55.132Z,99128.81
2022-10-17T11:12:26.340Z,99131.63
2022-10-17T11:14:58.922Z,99129.88
2022-10-17T11:17:31.815Z,99147.50
2022-10-17T11:20:10.854Z,99137.91
2022-10-17T11:22:41.697Z,99139.22
2022-10-17T11:25:17.664Z,99138.78
2022-10-17T11:27:45.735Z,99134.16
2022-10-17T11:30:14.821Z,99130.31
2022-10-17T11:32:45.969Z,99130.72
2022-10-17T11:35:19.983Z,99127.25
2022-10-17T11:37:51.017Z,99133.09
2022-10-17T11:40:24.416Z,99139.31
2022-10-17T11:42:54.897Z,99147.44
2022-10-17T11:45:24.493Z,99147.19
2022-10-17T11:47:55.076Z,99149.91
2022-10-17T11:53:17.307Z,99146.38
2022-10-17T11:55:46.370Z,99147.75
2022-10-17T11:58:30.456Z,99144.38
2022-10-17T12:01:06.417Z,99153.31
2022-10-17T12:03:46.753Z,99149.97
2022-10-17T12:06:19.566Z,99174.00
2022-10-17T12:08:50.704Z,99166.81
2022-10-17T12:11:28.612Z,99175.97
2022-10-17T12:13:57.351Z,99165.66
2022-10-17T12:19:28.567Z,99163.97
2022-10-17T12:21:59.694Z,99170.41
2022-10-17T12:24:36.748Z,99172.28
2022-10-17T12:27:24.044Z,99172.88
2022-10-17T12:30:00.409Z,99152.81
2022-10-17T12:32:46.925Z,99169.31
2022-10-17T12:35:24.286Z,99172.88
2022-10-17T12:38:14.914Z,99169.28
2022-10-17T12:40:56.848Z,99168.56
2022-10-17T12:43:44.965Z,99173.84
2022-10-17T12:46:54.237Z,99160.94
2022-10-17T12:49:41.831Z,99168.53
2022-10-17T12:52:21.616Z,99163.97
2022-10-17T12:55:00.537Z,99177.59
2022-10-17T12:57:45.311Z,99168.41
2022-10-17T13:00:21.779Z,99173.50
2022-10-17T13:02:53.005Z,99194.78
2022-10-17T13:05:28.424Z,99194.38
2022-10-17T13:08:00.392Z,99181.63
2022-10-17T13:10:31.715Z,99187.38
2022-10-17T13:13:07.886Z,99188.44
2022-10-17T13:15:37.818Z,99190.66
2022-10-17T13:18:06.381Z,99192.72
2022-10-17T13:20:37.076Z,99194.38
2022-10-17T13:23:06.879Z,99196.84
2022-10-17T13:25:38.785Z,99203.19
2022-10-17T13:28:13.684Z,99204.16
2022-10-17T13:30:49.630Z,99208.44
2022-10-17T13:33:29.948Z,99211.38
2022-10-17T13:36:01.428Z,99198.34
2022-10-17T13:38:34.842Z,99203.44
2022-10-17T13:41:33.760Z,99202.06
2022-10-17T13:43:53.287Z,99203.41
2022-10-17T13:46:37.469Z,99202.47
2022-10-17T13:49:11.573Z,99207.47
2022-10-17T13:51:43.775Z,99206.88
2022-10-17T13:54:20.331Z,99209.03
2022-10-17T13:59:30.916Z,99211.78
2022-10-17T14:02:01.814Z,99203.97
2022-10-17T14:04:40.048Z,99205.91
2022-10-17T14:07:22.694Z,99198.66
2022-10-17T14:09:52.271Z,99194.72
2022-10-17T14:12:21.477Z,99190.56
2022-10-17T14:15:09.741Z,99201.13
2022-10-17T14:17:38.931Z,99209.22
2022-10-17T14:20:57.115Z,99197.03
2022-10-17T14:23:21.452Z,99200.94
2022-10-17T14:25:48.238Z,99200.13
2022-10-17T14:28:18.301Z,99200.06
2022-10-17T14:31:02.184Z,99203.53
2022-10-17T14:33:32.375Z,99190.25
2022-10-17T14:36:01.449Z,99203.28
2022-10-17T14:38:30.411Z,99195.94
2022-10-17T14:41:30.272Z,99208.94
2022-10-17T14:43:53.879Z,99203.34
2022-10-17T14:46:22.020Z,99205.88
2022-10-17T14:48:53.538Z,99209.03
2022-10-17T14:51:21.599Z,99211.53
2022-10-17T14:54:06.499Z,99213.28
2022-10-17T14:56:41.169Z,99209.47
2022-10-17T14:59:12.600Z,99213.63
2022-10-17T15:01:46.199Z,99217.94
2022-10-17T15:04:14.199Z,99214.72
2022-10-17T15:06:45.022Z,99211.41
2022-10-17T15:09:13.374Z,99223.09
2022-10-17T15:11:42.768Z,99219.31
2022-10-17T15:14:10.723Z,99227.47
2022-10-17T15:16:39.449Z,99215.84
2022-10-17T15:19:07.652Z,99214.69
2022-10-17T15:21:42.070Z,99206.63
2022-10-17T15:24:13.866Z,99212.50
2022-10-17T15:26:43.567Z,99218.53
2022-10-17T15:29:16.254Z,99221.59
2022-10-17T15:31:44.517Z,99217.00
2022-10-17T15:34:12.826Z,99215.53
2022-10-17T15:36:42.947Z,99208.94
2022-10-17T15:39:11.472Z,99197.38
2022-10-17T15:41:39.756Z,99210.41
2022-10-17T15:44:09.364Z,99214.91
2022-10-17T15:46:42.135Z,99213.94
2022-10-17T15:49:13.108Z,99217.94
2022-10-17T15:51:41.805Z,99208.72
2022-10-17T15:54:10.344Z,99214.88
2022-10-17T15:56:41.218Z,99222.31
2022-10-17T15:59:15.026Z,99221.00
2022-10-17T16:01:43.681Z,99224.09
2022-10-17T16:04:15.408Z,99228.66
2022-10-17T16:06:46.154Z,99226.94
2022-10-17T16:09:14.465Z,99225.00
2022-10-17T16:11:44.527Z,99223.56
2022-10-17T16:14:16.837Z,99207.59
2022-10-17T16:16:45.351Z,99221.63
2022-10-17T16:19:13.697Z,99218.69
2022-10-17T16:21:42.712Z,99221.31
2022-10-17T16:24:12.339Z,99208.16
2022-10-17T16:26:42.732Z,99208.97
2022-10-17T16:29:14.803Z,99217.75
2022-10-17T16:31:45.259Z,99218.59
2022-10-17T16:34:14.695Z,99216.44
2022-10-17T16:36:43.191Z,99222.47
2022-10-17T16:39:13.804Z,99220.00
2022-10-17T16:41:42.068Z,99229.88
2022-10-17T16:44:14.520Z,99235.28
2022-10-17T16:46:42.831Z,99225.91
2022-10-17T16:49:15.915Z,99234.69
2022-10-17T16:51:44.133Z,99228.97
2022-10-17T16:54:12.349Z,99240.03
2022-10-17T16:56:42.040Z,99242.94
2022-10-17T16:59:11.993Z,99243.47
2022-10-17T17:01:41.667Z,99258.44
2022-10-17T17:04:09.934Z,99250.03
2022-10-17T17:06:38.645Z,99244.25
2022-10-17T17:09:08.561Z,99250.28
2022-10-17T17:11:37.779Z,99250.94
2022-10-17T17:14:06.414Z,99252.50
2022-10-17T17:16:35.278Z,99247.91
2022-10-17T17:19:05.621Z,99248.53
2022-10-17T17:21:33.943Z,99252.88
2022-10-17T17:24:02.547Z,99246.28
2022-10-17T17:26:31.699Z,99260.41
2022-10-17T17:29:00.874Z,99262.53
2022-10-17T17:31:29.752Z,99260.81
2022-10-17T17:33:58.009Z,99262.03
2022-10-17T17:36:28.255Z,99264.25
2022-10-17T17:38:59.352Z,99267.53
2022-10-17T17:41:27.764Z,99267.03
2022-10-17T17:43:55.780Z,99276.16
2022-10-17T17:46:24.770Z,99263.22
2022-10-17T17:48:53.824Z,99274.88
2022-10-17T17:51:26.883Z,99286.72
2022-10-17T17:53:58.431Z,99293.84
2022-10-17T17:56:27.459Z,99279.44
2022-10-17T17:58:56.662Z,99286.50
2022-10-17T18:01:25.502Z,99281.75
2022-10-17T18:03:54.757Z,99287.72
2022-10-17T18:06:25.786Z,99293.06
2022-10-17T18:08:55.011Z,99296.81
2022-10-17T18:11:28.089Z,99307.16
2022-10-17T18:13:56.613Z,99305.72
2022-10-17T18:16:24.991Z,99311.75
2022-10-17T18:18:53.249Z,99306.31
2022-10-17T18:21:21.240Z,99307.16
2022-10-17T18:23:49.609Z,99309.50
2022-10-17T18:26:17.628Z,99309.69
2022-10-17T18:28:46.981Z,99316.72
2022-10-17T18:31:18.855Z,99317.75
2022-10-17T18:33:46.935Z,99320.69
2022-10-17T18:36:15.996Z,99324.66
2022-10-17T18:38:46.070Z,99331.31
2022-10-17T18:41:17.836Z,99341.31
2022-10-17T18:43:48.895Z,99340.31
2022-10-17T18:46:17.744Z,99326.34
2022-10-17T18:48:46.713Z,99331.06
2022-10-17T18:51:18.018Z,99333.47
2022-10-17T18:53:46.706Z,99348.81
2022-10-17T18:56:15.104Z,99356.59
2022-10-17T18:58:47.046Z,99353.44
2022-10-17T19:01:16.274Z,99366.00
2022-10-17T19:03:44.600Z,99371.78
2022-10-17T19:06:13.395Z,99379.44
2022-10-17T19:08:42.313Z,99380.84
2022-10-17T19:11:11.707Z,99378.91
2022-10-17T19:13:40.046Z,99388.78
2022-10-17T19:16:14.221Z,99387.06
2022-10-17T19:18:42.256Z,99386.13
2022-10-17T19:21:11.003Z,99395.50
2022-10-17T19:23:41.066Z,99399.41
2022-10-17T19:26:11.063Z,99402.28
2022-10-17T19:28:42.172Z,99390.75
2022-10-17T19:31:16.917Z,99394.69
2022-10-17T19:33:49.522Z,99393.16
2022-10-17T19:36:17.848Z,99386.66
2022-10-17T19:38:45.884Z,99376.97
2022-10-17T19:41:14.853Z,99382.41
2022-10-17T19:43:43.559Z,99378.72
2022-10-17T19:46:12.334Z,99381.34
2022-10-17T19:48:42.508Z,99391.06
2022-10-17T19:51:13.132Z,99386.91
2022-10-17T19:53:41.408Z,99387.63
2022-10-17T19:56:09.947Z,99394.22
2022-10-17T19:58:44.549Z,99399.22
2022-10-17T20:01:13.257Z,99401.47
2022-10-17T20:03:44.413Z,99395.69
2022-10-17T20:06:13.835Z,99382.03
2022-10-17T20:08:42.040Z,99389.47
2022-10-17T20:11:11.916Z,99381.56
2022-10-17T20:13:40.509Z,99379.78
2022-10-17T20:16:09.236Z,99385.47
2022-10-17T20:18:38.041Z,99378.63
2022-10-17T20:21:07.128Z,99375.88
2022-10-17T20:23:36.909Z,99382.50
2022-10-17T20:26:08.724Z,99373.84
2022-10-17T20:28:47.268Z,99392.56
2022-10-17T20:31:16.086Z,99389.72
2022-10-17T20:33:44.124Z,99386.31
2022-10-17T20:36:12.783Z,99386.44
2022-10-17T20:38:42.214Z,99384.28
2022-10-17T20:41:11.099Z,99385.97
2022-10-17T20:43:39.168Z,99386.19
2022-10-17T20:46:22.872Z,99385.25
2022-10-17T20:48:54.040Z,99395.28
2022-10-17T20:51:22.382Z,99395.06
2022-10-17T20:53:51.736Z,99396.22
2022-10-17T20:56:20.392Z,99398.47
2022-10-17T20:58:51.173Z,99403.44
2022-10-17T21:01:19.302Z,99417.22
2022-10-17T21:03:47.341Z,99416.34
2022-10-17T21:06:15.309Z,99404.84
2022-10-17T21:08:43.399Z,99418.19
2022-10-17T21:11:13.958Z,99423.31
2022-10-17T21:13:42.214Z,99423.19
2022-10-17T21:16:11.263Z,99424.41
2022-10-17T21:18:39.711Z,99419.25
2022-10-17T21:21:08.635Z,99422.13
2022-10-17T21:23:39.534Z,99426.19
2022-10-17T21:26:09.330Z,99420.66
2022-10-17T21:28:39.101Z,99415.22
2022-10-17T21:31:12.022Z,99417.44
2022-10-17T21:33:40.250Z,99416.38
2022-10-17T21:36:13.723Z,99417.03
2022-10-17T21:38:44.080Z,99427.94
2022-10-17T21:41:12.704Z,99418.25
2022-10-17T21:43:44.631Z,99429.16
2022-10-17T21:46:15.162Z,99425.00
2022-10-17T21:48:43.598Z,99421.78
2022-10-17T21:51:13.132Z,99421.19
2022-10-17T21:53:41.427Z,99423.63
2022-10-17T21:56:11.298Z,99429.97
2022-10-17T21:58:39.593Z,99435.50
2022-10-17T22:02:35.090Z,99419.44
2022-10-17T22:05:06.295Z,99410.91
2022-10-17T22:07:36.286Z,99414.28
2022-10-17T22:10:08.048Z,99437.16
2022-10-17T22:12:36.447Z,99445.97
2022-10-17T22:15:07.543Z,99427.72
2022-10-17T22:17:37.444Z,99433.31
2022-10-17T22:20:06.369Z,99431.88
2022-10-17T22:22:34.597Z,99427.50
2022-10-17T22:25:07.417Z,99428.94
2022-10-17T22:27:38.634Z,99423.09
2022-10-17T22:30:10.343Z,99424.94
2022-10-17T22:32:40.072Z,99417.84
2022-10-17T22:35:09.091Z,99412.09
2022-10-17T22:37:37.978Z,99408.84
2022-10-17T22:40:07.780Z,99411.94
2022-10-17T22:42:36.474Z,99412.22
2022-10-17T22:45:05.163Z,99412.47
2022-10-17T22:47:33.539Z,99414.06
2022-10-17T22:50:03.285Z,99408.44
2022-10-17T22:52:31.710Z,99408.84
2022-10-17T22:55:00.149Z,99413.94
2022-10-17T22:57:28.433Z,99424.63
2022-10-17T22:59:56.673Z,99428.78
2022-10-17T23:02:25.295Z,99433.25
2022-10-17T23:04:53.570Z,99409.31
2022-10-17T23:07:25.921Z,99418.19
2022-10-17T23:09:54.471Z,99414.81
2022-10-17T23:12:22.766Z,99394.66
2022-10-17T23:14:51.023Z,99407.81
2022-10-17T23:17:19.599Z,99414.97
2022-10-17T23:19:47.875Z,99408.09
2022-10-17T23:22:16.078Z,99408.19
2022-10-17T23:24:45.698Z,99393.91
2022-10-17T23:27:13.900Z,99390.38
2022-10-17T23:29:42.508Z,99391.19
2022-10-17T23:32:10.687Z,99389.25
2022-10-17T23:34:38.912Z,99398.53
2022-10-17T23:37:07.171Z,99394.47
2022-10-17T23:39:35.424Z,99400.91
2022-10-17T23:42:05.208Z,99402.09
2022-10-17T23:44:35.807Z,99408.50
2022-10-17T23:47:04.114Z,99418.34
2022-10-17T23:49:35.492Z,99421.22
2022-10-17T23:52:06.766Z,99417.75
2022-10-17T23:54:35.121Z,99419.88
2022-10-17T23:57:04.785Z,99424.72
2022-10-17T23:59:32.982Z,99421.06
